If you wish to contribute or participate in the discussions about articles you are invited to join SKYbrary as a registered user

 Actions

Rabat

From SKYbrary Wiki

GMME
Airport
ICAO: GMME
Summary
Name Rabat
Region Africa
Territory Morocco MA.gif
Location Rabat/Sale, Morocco
Serving
Coordinates 34° 2' 48.00" N, 6° 44' 54.00" W
Runways
Designator Length Width Surface ROPS
4/22 3500 m11,482.94 ft
45 m147.638 ft
ASP no/no


METAR
Observation GMME 201930Z 23012KT 5000 BKN013 23/19 Q1015 NOSIG
Station Rabat-Sale
Date/Time 20 July 2019 19:30:00
Wind direction 230°
Wind speed 12 kts
Lowest cloud amount broken clouds
Temperature 23°C
Dew point 19°C
Humidity 78%
QNH 1015 hPa
Weather condition n/a


Rabat Airport

ICAO: GMME IATA: RBA

Description

International airport serving the capital of Morocco.

Climatology

Semi-arid/Dry-summer subtropical ”Mediterranean" climate (Köppen climate classification Csb/BSh) - characterized by hot, dry summers and mild winters. During the summer, subtropical high pressure cells dominate, making rainfall unlikely except for the occasional thunderstorm.

Maps

Terrain

Loading map...

Airport Layout

Loading map...


Accidents & Serious Incidents at or in vicinity of GMME

None on SKYbrary